sensor_id;sensor_type;location;lat;lon;timestamp;P1;durP1;ratioP1;P2;durP2;ratioP2
75866;SDS011;64513;56.258;43.980;2023-04-25T00:02:21;7.37;;;2.17;;
75866;SDS011;64513;56.258;43.980;2023-04-25T00:04:45;6.35;;;2.45;;
75866;SDS011;64513;56.258;43.980;2023-04-25T00:07:29;8.63;;;2.92;;
75866;SDS011;64513;56.258;43.980;2023-04-25T00:09:54;8.00;;;2.50;;
75866;SDS011;64513;56.258;43.980;2023-04-25T00:12:18;7.17;;;2.22;;
75866;SDS011;64513;56.258;43.980;2023-04-25T00:14:43;6.70;;;2.53;;
75866;SDS011;64513;56.258;43.980;2023-04-25T00:17:07;4.95;;;2.35;;
75866;SDS011;64513;56.258;43.980;2023-04-25T00:19:32;6.47;;;2.60;;
75866;SDS011;64513;56.258;43.980;2023-04-25T00:21:56;4.87;;;2.20;;
75866;SDS011;64513;56.258;43.980;2023-04-25T00:24:20;5.87;;;2.20;;
75866;SDS011;64513;56.258;43.980;2023-04-25T00:26:44;4.67;;;2.10;;
75866;SDS011;64513;56.258;43.980;2023-04-25T00:29:09;5.75;;;2.10;;
75866;SDS011;64513;56.258;43.980;2023-04-25T00:31:33;7.00;;;2.55;;
75866;SDS011;64513;56.258;43.980;2023-04-25T00:33:57;6.25;;;2.42;;
75866;SDS011;64513;56.258;43.980;2023-04-25T00:36:21;6.92;;;2.55;;
75866;SDS011;64513;56.258;43.980;2023-04-25T00:38:46;6.43;;;2.40;;
75866;SDS011;64513;56.258;43.980;2023-04-25T00:41:10;8.55;;;2.30;;
75866;SDS011;64513;56.258;43.980;2023-04-25T00:43:36;8.23;;;2.40;;
75866;SDS011;64513;56.258;43.980;2023-04-25T00:46:00;6.22;;;2.47;;
75866;SDS011;64513;56.258;43.980;2023-04-25T00:48:25;4.33;;;2.08;;
75866;SDS011;64513;56.258;43.980;2023-04-25T00:53:16;7.12;;;2.15;;
75866;SDS011;64513;56.258;43.980;2023-04-25T00:55:40;5.40;;;2.20;;
75866;SDS011;64513;56.258;43.980;2023-04-25T00:58:04;5.87;;;2.20;;
75866;SDS011;64513;56.258;43.980;2023-04-25T01:00:28;5.67;;;2.20;;
75866;SDS011;64513;56.258;43.980;2023-04-25T01:02:53;4.23;;;2.13;;
75866;SDS011;64513;56.258;43.980;2023-04-25T01:05:17;7.05;;;2.30;;
75866;SDS011;64513;56.258;43.980;2023-04-25T01:07:41;5.03;;;2.33;;
75866;SDS011;64513;56.258;43.980;2023-04-25T01:10:06;8.60;;;2.20;;
75866;SDS011;64513;56.258;43.980;2023-04-25T01:12:31;6.70;;;2.30;;
75866;SDS011;64513;56.258;43.980;2023-04-25T01:14:56;4.33;;;2.30;;
75866;SDS011;64513;56.258;43.980;2023-04-25T01:17:20;5.78;;;2.40;;
75866;SDS011;64513;56.258;43.980;2023-04-25T01:19:44;4.50;;;2.17;;
75866;SDS011;64513;56.258;43.980;2023-04-25T01:22:09;6.37;;;2.30;;
75866;SDS011;64513;56.258;43.980;2023-04-25T01:24:35;6.62;;;2.42;;
75866;SDS011;64513;56.258;43.980;2023-04-25T01:27:00;6.70;;;2.10;;
75866;SDS011;64513;56.258;43.980;2023-04-25T01:29:25;5.12;;;2.40;;
75866;SDS011;64513;56.258;43.980;2023-04-25T01:31:50;10.13;;;2.45;;
75866;SDS011;64513;56.258;43.980;2023-04-25T01:34:15;4.40;;;2.30;;
75866;SDS011;64513;56.258;43.980;2023-04-25T01:36:40;7.00;;;2.58;;
75866;SDS011;64513;56.258;43.980;2023-04-25T01:39:04;6.97;;;2.33;;
75866;SDS011;64513;56.258;43.980;2023-04-25T01:41:29;5.67;;;2.60;;
75866;SDS011;64513;56.258;43.980;2023-04-25T01:43:55;8.35;;;2.22;;
75866;SDS011;64513;56.258;43.980;2023-04-25T01:46:19;4.70;;;2.40;;
75866;SDS011;64513;56.258;43.980;2023-04-25T01:48:43;4.95;;;2.58;;
75866;SDS011;64513;56.258;43.980;2023-04-25T01:51:08;6.17;;;2.53;;
75866;SDS011;64513;56.258;43.980;2023-04-25T01:53:32;6.67;;;2.70;;
75866;SDS011;64513;56.258;43.980;2023-04-25T01:55:57;12.82;;;2.92;;
75866;SDS011;64513;56.258;43.980;2023-04-25T01:58:21;7.58;;;2.50;;
75866;SDS011;64513;56.258;43.980;2023-04-25T02:00:46;4.55;;;2.33;;
75866;SDS011;64513;56.258;43.980;2023-04-25T02:03:10;8.97;;;3.13;;
75866;SDS011;64513;56.258;43.980;2023-04-25T02:08:01;7.70;;;2.77;;
75866;SDS011;64513;56.258;43.980;2023-04-25T02:10:26;7.90;;;2.80;;
75866;SDS011;64513;56.258;43.980;2023-04-25T02:12:50;6.40;;;3.00;;
75866;SDS011;64513;56.258;43.980;2023-04-25T02:15:15;6.40;;;2.40;;
75866;SDS011;64513;56.258;43.980;2023-04-25T02:17:39;9.23;;;2.83;;
75866;SDS011;64513;56.258;43.980;2023-04-25T02:20:06;12.58;;;3.00;;
75866;SDS011;64513;56.258;43.980;2023-04-25T02:22:30;7.08;;;2.77;;
75866;SDS011;64513;56.258;43.980;2023-04-25T02:24:55;8.23;;;3.25;;
75866;SDS011;64513;56.258;43.980;2023-04-25T02:27:20;6.80;;;3.20;;
75866;SDS011;64513;56.258;43.980;2023-04-25T02:29:44;6.87;;;2.90;;
75866;SDS011;64513;56.258;43.980;2023-04-25T02:32:08;7.42;;;3.35;;
75866;SDS011;64513;56.258;43.980;2023-04-25T02:34:32;5.60;;;2.80;;
75866;SDS011;64513;56.258;43.980;2023-04-25T02:36:57;6.75;;;3.27;;
75866;SDS011;64513;56.258;43.980;2023-04-25T02:39:21;6.93;;;2.90;;
75866;SDS011;64513;56.258;43.980;2023-04-25T02:41:45;8.35;;;2.75;;
75866;SDS011;64513;56.258;43.980;2023-04-25T02:44:09;7.35;;;2.83;;
75866;SDS011;64513;56.258;43.980;2023-04-25T02:46:34;10.35;;;2.52;;
75866;SDS011;64513;56.258;43.980;2023-04-25T02:48:58;7.97;;;2.60;;
75866;SDS011;64513;56.258;43.980;2023-04-25T02:51:22;9.37;;;2.73;;
75866;SDS011;64513;56.258;43.980;2023-04-25T02:53:46;10.45;;;2.70;;
75866;SDS011;64513;56.258;43.980;2023-04-25T02:56:10;9.23;;;3.00;;
75866;SDS011;64513;56.258;43.980;2023-04-25T02:58:35;9.55;;;3.15;;
75866;SDS011;64513;56.258;43.980;2023-04-25T03:00:59;8.45;;;2.85;;
75866;SDS011;64513;56.258;43.980;2023-04-25T03:03:23;6.87;;;2.20;;
75866;SDS011;64513;56.258;43.980;2023-04-25T03:05:48;7.25;;;2.60;;
75866;SDS011;64513;56.258;43.980;2023-04-25T03:08:13;8.78;;;2.85;;
75866;SDS011;64513;56.258;43.980;2023-04-25T03:10:38;7.30;;;3.12;;
75866;SDS011;64513;56.258;43.980;2023-04-25T03:13:04;6.12;;;2.77;;
75866;SDS011;64513;56.258;43.980;2023-04-25T03:15:28;12.10;;;2.87;;
75866;SDS011;64513;56.258;43.980;2023-04-25T03:17:52;6.23;;;2.50;;
75866;SDS011;64513;56.258;43.980;2023-04-25T03:20:16;12.70;;;2.80;;
75866;SDS011;64513;56.258;43.980;2023-04-25T03:22:41;12.43;;;2.98;;
75866;SDS011;64513;56.258;43.980;2023-04-25T03:25:05;12.73;;;2.90;;
75866;SDS011;64513;56.258;43.980;2023-04-25T03:27:30;7.47;;;2.50;;
75866;SDS011;64513;56.258;43.980;2023-04-25T03:29:54;10.30;;;2.47;;
75866;SDS011;64513;56.258;43.980;2023-04-25T03:32:18;7.67;;;2.35;;
75866;SDS011;64513;56.258;43.980;2023-04-25T03:34:43;7.20;;;2.50;;
75866;SDS011;64513;56.258;43.980;2023-04-25T03:37:07;8.43;;;2.45;;
75866;SDS011;64513;56.258;43.980;2023-04-25T03:39:31;12.45;;;2.45;;
75866;SDS011;64513;56.258;43.980;2023-04-25T03:41:55;6.87;;;2.37;;
75866;SDS011;64513;56.258;43.980;2023-04-25T03:44:19;10.73;;;2.83;;
75866;SDS011;64513;56.258;43.980;2023-04-25T03:46:45;6.85;;;2.37;;
75866;SDS011;64513;56.258;43.980;2023-04-25T03:49:09;6.87;;;3.20;;
75866;SDS011;64513;56.258;43.980;2023-04-25T03:51:33;9.28;;;2.60;;
75866;SDS011;64513;56.258;43.980;2023-04-25T03:53:57;10.53;;;2.80;;
75866;SDS011;64513;56.258;43.980;2023-04-25T03:56:21;8.95;;;2.80;;
75866;SDS011;64513;56.258;43.980;2023-04-25T03:58:45;13.10;;;3.37;;
75866;SDS011;64513;56.258;43.980;2023-04-25T04:01:10;8.60;;;2.90;;
75866;SDS011;64513;56.258;43.980;2023-04-25T04:03:34;6.73;;;2.50;;
75866;SDS011;64513;56.258;43.980;2023-04-25T04:05:59;11.63;;;3.15;;
75866;SDS011;64513;56.258;43.980;2023-04-25T04:08:24;8.58;;;2.80;;
75866;SDS011;64513;56.258;43.980;2023-04-25T04:10:48;11.73;;;2.75;;
75866;SDS011;64513;56.258;43.980;2023-04-25T04:13:12;9.48;;;3.15;;
75866;SDS011;64513;56.258;43.980;2023-04-25T04:15:36;12.78;;;3.37;;
75866;SDS011;64513;56.258;43.980;2023-04-25T04:18:01;14.25;;;4.12;;
75866;SDS011;64513;56.258;43.980;2023-04-25T04:20:26;19.92;;;4.20;;
75866;SDS011;64513;56.258;43.980;2023-04-25T04:22:51;17.32;;;4.12;;
75866;SDS011;64513;56.258;43.980;2023-04-25T04:25:15;22.33;;;4.57;;
75866;SDS011;64513;56.258;43.980;2023-04-25T04:27:39;15.70;;;3.83;;
75866;SDS011;64513;56.258;43.980;2023-04-25T04:30:05;12.03;;;3.60;;
75866;SDS011;64513;56.258;43.980;2023-04-25T04:32:30;16.05;;;4.03;;
75866;SDS011;64513;56.258;43.980;2023-04-25T04:34:56;12.00;;;3.47;;
75866;SDS011;64513;56.258;43.980;2023-04-25T04:37:20;13.35;;;3.10;;
75866;SDS011;64513;56.258;43.980;2023-04-25T04:39:45;10.40;;;2.67;;
75866;SDS011;64513;56.258;43.980;2023-04-25T04:42:09;10.08;;;2.67;;
75866;SDS011;64513;56.258;43.980;2023-04-25T04:44:33;12.80;;;2.92;;
75866;SDS011;64513;56.258;43.980;2023-04-25T04:46:59;9.93;;;2.75;;
75866;SDS011;64513;56.258;43.980;2023-04-25T04:49:24;12.53;;;2.87;;
75866;SDS011;64513;56.258;43.980;2023-04-25T04:51:49;9.23;;;3.27;;
75866;SDS011;64513;56.258;43.980;2023-04-25T04:54:15;9.73;;;2.67;;
75866;SDS011;64513;56.258;43.980;2023-04-25T04:56:39;8.58;;;2.77;;
75866;SDS011;64513;56.258;43.980;2023-04-25T04:59:04;5.28;;;2.47;;
75866;SDS011;64513;56.258;43.980;2023-04-25T05:01:28;6.65;;;2.62;;
75866;SDS011;64513;56.258;43.980;2023-04-25T05:03:52;6.58;;;2.20;;
75866;SDS011;64513;56.258;43.980;2023-04-25T05:06:18;6.70;;;2.50;;
75866;SDS011;64513;56.258;43.980;2023-04-25T05:08:43;7.97;;;2.42;;
75866;SDS011;64513;56.258;43.980;2023-04-25T05:11:07;11.25;;;2.77;;
75866;SDS011;64513;56.258;43.980;2023-04-25T05:13:31;5.50;;;2.00;;
75866;SDS011;64513;56.258;43.980;2023-04-25T05:15:55;10.20;;;2.50;;
75866;SDS011;64513;56.258;43.980;2023-04-25T05:18:20;5.33;;;2.02;;
75866;SDS011;64513;56.258;43.980;2023-04-25T05:20:44;4.12;;;2.15;;
75866;SDS011;64513;56.258;43.980;2023-04-25T05:23:08;8.73;;;2.52;;
75866;SDS011;64513;56.258;43.980;2023-04-25T05:25:32;6.87;;;2.17;;
75866;SDS011;64513;56.258;43.980;2023-04-25T05:27:57;6.78;;;2.05;;
75866;SDS011;64513;56.258;43.980;2023-04-25T05:30:21;5.72;;;2.58;;
75866;SDS011;64513;56.258;43.980;2023-04-25T05:32:45;5.75;;;2.33;;
75866;SDS011;64513;56.258;43.980;2023-04-25T05:35:11;8.98;;;2.33;;
75866;SDS011;64513;56.258;43.980;2023-04-25T05:37:35;3.73;;;1.60;;
75866;SDS011;64513;56.258;43.980;2023-04-25T05:39:59;5.63;;;1.80;;
75866;SDS011;64513;56.258;43.980;2023-04-25T05:42:27;6.15;;;2.10;;
75866;SDS011;64513;56.258;43.980;2023-04-25T05:44:51;5.70;;;1.90;;
75866;SDS011;64513;56.258;43.980;2023-04-25T05:47:15;6.87;;;2.30;;
75866;SDS011;64513;56.258;43.980;2023-04-25T05:49:39;6.45;;;2.30;;
75866;SDS011;64513;56.258;43.980;2023-04-25T05:52:03;7.92;;;2.40;;
75866;SDS011;64513;56.258;43.980;2023-04-25T05:54:27;8.95;;;2.40;;
75866;SDS011;64513;56.258;43.980;2023-04-25T05:56:51;5.83;;;2.20;;
75866;SDS011;64513;56.258;43.980;2023-04-25T05:59:16;4.25;;;1.90;;
75866;SDS011;64513;56.258;43.980;2023-04-25T06:01:40;4.87;;;1.77;;
75866;SDS011;64513;56.258;43.980;2023-04-25T06:04:05;4.60;;;1.90;;
75866;SDS011;64513;56.258;43.980;2023-04-25T06:06:29;4.53;;;1.72;;
75866;SDS011;64513;56.258;43.980;2023-04-25T06:08:53;5.05;;;1.87;;
75866;SDS011;64513;56.258;43.980;2023-04-25T06:11:17;4.85;;;2.00;;
75866;SDS011;64513;56.258;43.980;2023-04-25T06:13:42;4.42;;;2.05;;
75866;SDS011;64513;56.258;43.980;2023-04-25T06:16:06;7.12;;;2.00;;
75866;SDS011;64513;56.258;43.980;2023-04-25T06:18:30;10.03;;;2.27;;
75866;SDS011;64513;56.258;43.980;2023-04-25T06:20:54;12.70;;;2.30;;
75866;SDS011;64513;56.258;43.980;2023-04-25T06:23:19;5.20;;;2.15;;
75866;SDS011;64513;56.258;43.980;2023-04-25T06:25:43;9.33;;;2.10;;
75866;SDS011;64513;56.258;43.980;2023-04-25T06:28:07;9.20;;;2.40;;
75866;SDS011;64513;56.258;43.980;2023-04-25T06:30:32;4.47;;;1.80;;
75866;SDS011;64513;56.258;43.980;2023-04-25T06:32:56;4.35;;;2.00;;
75866;SDS011;64513;56.258;43.980;2023-04-25T06:35:20;3.72;;;2.00;;
75866;SDS011;64513;56.258;43.980;2023-04-25T06:37:44;5.50;;;1.98;;
75866;SDS011;64513;56.258;43.980;2023-04-25T06:40:09;6.80;;;1.70;;
75866;SDS011;64513;56.258;43.980;2023-04-25T06:42:33;6.33;;;1.92;;
75866;SDS011;64513;56.258;43.980;2023-04-25T06:44:58;6.25;;;1.70;;
75866;SDS011;64513;56.258;43.980;2023-04-25T06:47:22;6.53;;;2.00;;
75866;SDS011;64513;56.258;43.980;2023-04-25T06:49:48;6.77;;;1.93;;
75866;SDS011;64513;56.258;43.980;2023-04-25T06:52:13;7.07;;;2.30;;
75866;SDS011;64513;56.258;43.980;2023-04-25T06:54:38;5.15;;;1.90;;
75866;SDS011;64513;56.258;43.980;2023-04-25T06:57:02;10.93;;;2.10;;
75866;SDS011;64513;56.258;43.980;2023-04-25T06:59:26;4.85;;;2.10;;
75866;SDS011;64513;56.258;43.980;2023-04-25T07:01:51;6.05;;;2.33;;
75866;SDS011;64513;56.258;43.980;2023-04-25T07:04:15;7.45;;;2.10;;
75866;SDS011;64513;56.258;43.980;2023-04-25T07:06:39;8.93;;;1.77;;
75866;SDS011;64513;56.258;43.980;2023-04-25T07:09:03;4.25;;;2.17;;
75866;SDS011;64513;56.258;43.980;2023-04-25T07:11:28;8.18;;;2.00;;
75866;SDS011;64513;56.258;43.980;2023-04-25T07:13:52;9.43;;;1.93;;
75866;SDS011;64513;56.258;43.980;2023-04-25T07:16:16;6.07;;;2.10;;
75866;SDS011;64513;56.258;43.980;2023-04-25T07:18:40;5.10;;;2.02;;
75866;SDS011;64513;56.258;43.980;2023-04-25T07:21:05;6.28;;;2.00;;
75866;SDS011;64513;56.258;43.980;2023-04-25T07:23:29;5.50;;;2.22;;
75866;SDS011;64513;56.258;43.980;2023-04-25T07:25:54;7.78;;;1.95;;
75866;SDS011;64513;56.258;43.980;2023-04-25T07:28:18;15.85;;;2.27;;
75866;SDS011;64513;56.258;43.980;2023-04-25T07:30:42;9.43;;;2.05;;
75866;SDS011;64513;56.258;43.980;2023-04-25T07:33:06;8.28;;;1.80;;
75866;SDS011;64513;56.258;43.980;2023-04-25T07:35:30;5.37;;;1.80;;
75866;SDS011;64513;56.258;43.980;2023-04-25T07:37:55;15.17;;;1.83;;
75866;SDS011;64513;56.258;43.980;2023-04-25T07:40:20;8.27;;;2.17;;
75866;SDS011;64513;56.258;43.980;2023-04-25T07:42:45;7.55;;;1.98;;
75866;SDS011;64513;56.258;43.980;2023-04-25T07:45:09;10.15;;;2.40;;
75866;SDS011;64513;56.258;43.980;2023-04-25T07:47:34;5.20;;;1.85;;
75866;SDS011;64513;56.258;43.980;2023-04-25T07:49:59;7.50;;;1.60;;
75866;SDS011;64513;56.258;43.980;2023-04-25T07:52:25;3.35;;;1.70;;
75866;SDS011;64513;56.258;43.980;2023-04-25T07:54:49;5.87;;;1.92;;
75866;SDS011;64513;56.258;43.980;2023-04-25T07:57:13;5.83;;;1.70;;
75866;SDS011;64513;56.258;43.980;2023-04-25T07:59:37;6.20;;;1.90;;
75866;SDS011;64513;56.258;43.980;2023-04-25T08:02:01;5.27;;;1.43;;
75866;SDS011;64513;56.258;43.980;2023-04-25T08:04:26;4.67;;;1.50;;
75866;SDS011;64513;56.258;43.980;2023-04-25T08:06:50;7.80;;;1.95;;
75866;SDS011;64513;56.258;43.980;2023-04-25T08:09:34;4.75;;;1.85;;
75866;SDS011;64513;56.258;43.980;2023-04-25T08:11:58;4.75;;;1.80;;
75866;SDS011;64513;56.258;43.980;2023-04-25T08:14:22;8.33;;;1.72;;
75866;SDS011;64513;56.258;43.980;2023-04-25T08:16:47;6.05;;;1.72;;
75866;SDS011;64513;56.258;43.980;2023-04-25T08:19:11;5.85;;;2.00;;
75866;SDS011;64513;56.258;43.980;2023-04-25T08:21:35;5.80;;;1.70;;
75866;SDS011;64513;56.258;43.980;2023-04-25T08:23:59;5.72;;;1.80;;
75866;SDS011;64513;56.258;43.980;2023-04-25T08:26:24;7.80;;;1.67;;
75866;SDS011;64513;56.258;43.980;2023-04-25T08:28:48;4.40;;;1.60;;
75866;SDS011;64513;56.258;43.980;2023-04-25T08:31:13;8.33;;;1.52;;
75866;SDS011;64513;56.258;43.980;2023-04-25T08:33:37;5.08;;;1.65;;
75866;SDS011;64513;56.258;43.980;2023-04-25T08:36:01;3.67;;;1.60;;
75866;SDS011;64513;56.258;43.980;2023-04-25T08:38:26;8.33;;;1.60;;
75866;SDS011;64513;56.258;43.980;2023-04-25T08:40:50;5.65;;;1.62;;
75866;SDS011;64513;56.258;43.980;2023-04-25T08:43:15;4.95;;;1.70;;
75866;SDS011;64513;56.258;43.980;2023-04-25T08:45:42;4.28;;;1.67;;
75866;SDS011;64513;56.258;43.980;2023-04-25T08:50:52;3.80;;;1.50;;
75866;SDS011;64513;56.258;43.980;2023-04-25T08:53:18;5.43;;;1.73;;
75866;SDS011;64513;56.258;43.980;2023-04-25T08:56:03;8.18;;;1.75;;
75866;SDS011;64513;56.258;43.980;2023-04-25T08:58:30;9.18;;;1.90;;
75866;SDS011;64513;56.258;43.980;2023-04-25T09:00:55;10.72;;;1.75;;
75866;SDS011;64513;56.258;43.980;2023-04-25T09:03:20;6.85;;;1.80;;
75866;SDS011;64513;56.258;43.980;2023-04-25T09:05:44;7.92;;;1.75;;
75866;SDS011;64513;56.258;43.980;2023-04-25T09:08:09;5.92;;;1.60;;
75866;SDS011;64513;56.258;43.980;2023-04-25T09:10:33;10.55;;;2.00;;
75866;SDS011;64513;56.258;43.980;2023-04-25T09:16:02;7.77;;;1.73;;
75866;SDS011;64513;56.258;43.980;2023-04-25T09:18:27;9.80;;;2.00;;
75866;SDS011;64513;56.258;43.980;2023-04-25T09:20:53;7.55;;;1.70;;
75866;SDS011;64513;56.258;43.980;2023-04-25T09:23:18;7.03;;;1.90;;
75866;SDS011;64513;56.258;43.980;2023-04-25T09:25:44;6.17;;;1.50;;
75866;SDS011;64513;56.258;43.980;2023-04-25T09:28:10;4.28;;;1.87;;
75866;SDS011;64513;56.258;43.980;2023-04-25T09:30:35;7.08;;;1.70;;
75866;SDS011;64513;56.258;43.980;2023-04-25T09:35:45;5.55;;;1.87;;
75866;SDS011;64513;56.258;43.980;2023-04-25T09:38:11;9.98;;;1.90;;
75866;SDS011;64513;56.258;43.980;2023-04-25T09:40:39;5.20;;;1.90;;
75866;SDS011;64513;56.258;43.980;2023-04-25T09:43:23;6.97;;;2.10;;
75866;SDS011;64513;56.258;43.980;2023-04-25T09:45:49;11.63;;;1.90;;
75866;SDS011;64513;56.258;43.980;2023-04-25T09:53:43;9.45;;;2.35;;
75866;SDS011;64513;56.258;43.980;2023-04-25T09:56:28;10.78;;;2.40;;
75866;SDS011;64513;56.258;43.980;2023-04-25T09:58:54;7.83;;;2.22;;
75866;SDS011;64513;56.258;43.980;2023-04-25T10:01:20;7.95;;;2.22;;
75866;SDS011;64513;56.258;43.980;2023-04-25T10:03:46;9.58;;;2.30;;
75866;SDS011;64513;56.258;43.980;2023-04-25T10:06:14;5.30;;;1.63;;
75866;SDS011;64513;56.258;43.980;2023-04-25T10:08:40;6.37;;;2.03;;
75866;SDS011;64513;56.258;43.980;2023-04-25T10:11:07;9.80;;;2.17;;
75866;SDS011;64513;56.258;43.980;2023-04-25T10:13:33;6.62;;;2.58;;
75866;SDS011;64513;56.258;43.980;2023-04-25T10:15:59;8.53;;;2.40;;
75866;SDS011;64513;56.258;43.980;2023-04-25T10:18:26;6.12;;;2.20;;
75866;SDS011;64513;56.258;43.980;2023-04-25T10:20:52;7.58;;;1.95;;
75866;SDS011;64513;56.258;43.980;2023-04-25T10:23:19;4.70;;;2.12;;
75866;SDS011;64513;56.258;43.980;2023-04-25T10:25:44;8.88;;;2.30;;
75866;SDS011;64513;56.258;43.980;2023-04-25T10:28:08;5.45;;;2.10;;
75866;SDS011;64513;56.258;43.980;2023-04-25T10:30:32;5.57;;;2.00;;
75866;SDS011;64513;56.258;43.980;2023-04-25T10:32:58;7.30;;;2.00;;
75866;SDS011;64513;56.258;43.980;2023-04-25T10:49:10;4.95;;;1.87;;
75866;SDS011;64513;56.258;43.980;2023-04-25T10:51:34;7.95;;;2.05;;
75866;SDS011;64513;56.258;43.980;2023-04-25T10:56:48;9.00;;;2.40;;
75866;SDS011;64513;56.258;43.980;2023-04-25T10:59:14;6.70;;;1.93;;
75866;SDS011;64513;56.258;43.980;2023-04-25T11:01:59;7.78;;;2.60;;
75866;SDS011;64513;56.258;43.980;2023-04-25T11:09:57;9.00;;;2.30;;
75866;SDS011;64513;56.258;43.980;2023-04-25T11:12:24;8.73;;;2.08;;
75866;SDS011;64513;56.258;43.980;2023-04-25T11:14:48;8.88;;;2.22;;
75866;SDS011;64513;56.258;43.980;2023-04-25T11:17:13;10.95;;;3.12;;
75866;SDS011;64513;56.258;43.980;2023-04-25T11:19:37;7.75;;;2.35;;
75866;SDS011;64513;56.258;43.980;2023-04-25T11:22:01;8.90;;;2.20;;
75866;SDS011;64513;56.258;43.980;2023-04-25T11:24:27;12.97;;;2.00;;
75866;SDS011;64513;56.258;43.980;2023-04-25T11:27:12;13.95;;;2.25;;
75866;SDS011;64513;56.258;43.980;2023-04-25T11:29:36;8.80;;;1.98;;
75866;SDS011;64513;56.258;43.980;2023-04-25T11:32:02;7.25;;;2.35;;
75866;SDS011;64513;56.258;43.980;2023-04-25T11:36:53;12.53;;;2.40;;
75866;SDS011;64513;56.258;43.980;2023-04-25T11:39:18;7.95;;;2.27;;
75866;SDS011;64513;56.258;43.980;2023-04-25T11:41:43;5.92;;;2.30;;
75866;SDS011;64513;56.258;43.980;2023-04-25T11:44:07;10.27;;;2.50;;
75866;SDS011;64513;56.258;43.980;2023-04-25T11:48:58;10.82;;;1.90;;
75866;SDS011;64513;56.258;43.980;2023-04-25T11:51:22;13.70;;;2.33;;
75866;SDS011;64513;56.258;43.980;2023-04-25T11:53:47;5.28;;;2.08;;
75866;SDS011;64513;56.258;43.980;2023-04-25T11:56:12;8.13;;;2.47;;
75866;SDS011;64513;56.258;43.980;2023-04-25T12:01:46;6.92;;;2.20;;
75866;SDS011;64513;56.258;43.980;2023-04-25T12:04:29;9.58;;;2.35;;
75866;SDS011;64513;56.258;43.980;2023-04-25T12:06:54;6.53;;;1.90;;
75866;SDS011;64513;56.258;43.980;2023-04-25T12:09:21;9.07;;;2.40;;
75866;SDS011;64513;56.258;43.980;2023-04-25T12:12:05;12.20;;;2.20;;
75866;SDS011;64513;56.258;43.980;2023-04-25T12:14:33;11.00;;;2.77;;
75866;SDS011;64513;56.258;43.980;2023-04-25T12:16:59;10.32;;;2.15;;
75866;SDS011;64513;56.258;43.980;2023-04-25T12:19:58;13.75;;;2.40;;
75866;SDS011;64513;56.258;43.980;2023-04-25T12:22:44;11.50;;;1.80;;
75866;SDS011;64513;56.258;43.980;2023-04-25T12:24:59;7.62;;;2.47;;
75866;SDS011;64513;56.258;43.980;2023-04-25T12:27:25;7.40;;;2.23;;
75866;SDS011;64513;56.258;43.980;2023-04-25T12:29:50;8.07;;;2.40;;
75866;SDS011;64513;56.258;43.980;2023-04-25T12:32:16;10.80;;;1.95;;
75866;SDS011;64513;56.258;43.980;2023-04-25T12:34:40;10.35;;;2.42;;
75866;SDS011;64513;56.258;43.980;2023-04-25T12:37:05;6.90;;;2.05;;
75866;SDS011;64513;56.258;43.980;2023-04-25T12:39:29;10.20;;;2.27;;
75866;SDS011;64513;56.258;43.980;2023-04-25T12:41:54;12.13;;;2.40;;
75866;SDS011;64513;56.258;43.980;2023-04-25T12:44:19;6.50;;;2.00;;
75866;SDS011;64513;56.258;43.980;2023-04-25T12:46:43;10.30;;;2.00;;
75866;SDS011;64513;56.258;43.980;2023-04-25T12:49:08;12.15;;;2.10;;
75866;SDS011;64513;56.258;43.980;2023-04-25T12:51:32;6.42;;;1.87;;
75866;SDS011;64513;56.258;43.980;2023-04-25T12:53:56;7.62;;;2.12;;
75866;SDS011;64513;56.258;43.980;2023-04-25T12:56:21;7.60;;;1.80;;
75866;SDS011;64513;56.258;43.980;2023-04-25T12:58:46;12.53;;;2.40;;
75866;SDS011;64513;56.258;43.980;2023-04-25T13:01:10;11.87;;;2.10;;
75866;SDS011;64513;56.258;43.980;2023-04-25T13:03:35;8.45;;;1.70;;
75866;SDS011;64513;56.258;43.980;2023-04-25T13:06:00;5.33;;;1.75;;
75866;SDS011;64513;56.258;43.980;2023-04-25T13:08:24;12.20;;;2.20;;
75866;SDS011;64513;56.258;43.980;2023-04-25T13:10:48;9.13;;;1.50;;
75866;SDS011;64513;56.258;43.980;2023-04-25T13:13:12;12.23;;;1.90;;
75866;SDS011;64513;56.258;43.980;2023-04-25T13:15:37;11.37;;;1.60;;
75866;SDS011;64513;56.258;43.980;2023-04-25T13:18:02;16.62;;;1.92;;
75866;SDS011;64513;56.258;43.980;2023-04-25T13:20:27;7.80;;;1.37;;
75866;SDS011;64513;56.258;43.980;2023-04-25T13:22:51;10.10;;;1.62;;
75866;SDS011;64513;56.258;43.980;2023-04-25T13:25:15;6.10;;;1.70;;
75866;SDS011;64513;56.258;43.980;2023-04-25T13:27:43;4.80;;;1.13;;
75866;SDS011;64513;56.258;43.980;2023-04-25T13:30:08;3.42;;;1.00;;
75866;SDS011;64513;56.258;43.980;2023-04-25T13:33:07;3.70;;;0.90;;
75866;SDS011;64513;56.258;43.980;2023-04-25T13:35:00;6.65;;;1.20;;
75866;SDS011;64513;56.258;43.980;2023-04-25T13:37:46;3.20;;;1.10;;
75866;SDS011;64513;56.258;43.980;2023-04-25T13:40:10;4.40;;;1.40;;
75866;SDS011;64513;56.258;43.980;2023-04-25T13:42:35;4.53;;;1.40;;
75866;SDS011;64513;56.258;43.980;2023-04-25T13:45:00;6.15;;;1.60;;
75866;SDS011;64513;56.258;43.980;2023-04-25T13:47:27;4.80;;;1.80;;
75866;SDS011;64513;56.258;43.980;2023-04-25T13:49:51;5.15;;;1.60;;
75866;SDS011;64513;56.258;43.980;2023-04-25T13:52:16;5.97;;;1.70;;
75866;SDS011;64513;56.258;43.980;2023-04-25T13:54:40;4.83;;;2.10;;
75866;SDS011;64513;56.258;43.980;2023-04-25T13:57:05;7.58;;;3.00;;
75866;SDS011;64513;56.258;43.980;2023-04-25T13:59:29;6.85;;;2.27;;
75866;SDS011;64513;56.258;43.980;2023-04-25T14:01:55;6.33;;;2.33;;
75866;SDS011;64513;56.258;43.980;2023-04-25T14:04:19;6.50;;;2.30;;
75866;SDS011;64513;56.258;43.980;2023-04-25T14:06:43;7.55;;;2.35;;
75866;SDS011;64513;56.258;43.980;2023-04-25T14:09:08;8.03;;;2.70;;
75866;SDS011;64513;56.258;43.980;2023-04-25T14:11:33;5.62;;;2.35;;
75866;SDS011;64513;56.258;43.980;2023-04-25T14:13:57;6.97;;;2.33;;
75866;SDS011;64513;56.258;43.980;2023-04-25T14:16:21;7.27;;;2.30;;
75866;SDS011;64513;56.258;43.980;2023-04-25T14:18:45;7.53;;;2.42;;
75866;SDS011;64513;56.258;43.980;2023-04-25T14:21:10;7.53;;;2.10;;
75866;SDS011;64513;56.258;43.980;2023-04-25T14:23:34;6.00;;;2.22;;
75866;SDS011;64513;56.258;43.980;2023-04-25T14:25:58;8.33;;;2.67;;
75866;SDS011;64513;56.258;43.980;2023-04-25T14:28:23;7.03;;;2.60;;
75866;SDS011;64513;56.258;43.980;2023-04-25T14:30:47;6.67;;;2.65;;
75866;SDS011;64513;56.258;43.980;2023-04-25T14:33:11;5.53;;;2.05;;
75866;SDS011;64513;56.258;43.980;2023-04-25T14:35:35;6.95;;;2.62;;
75866;SDS011;64513;56.258;43.980;2023-04-25T14:38:00;9.28;;;2.60;;
75866;SDS011;64513;56.258;43.980;2023-04-25T14:40:24;7.07;;;2.40;;
75866;SDS011;64513;56.258;43.980;2023-04-25T14:42:48;7.60;;;2.50;;
75866;SDS011;64513;56.258;43.980;2023-04-25T14:45:12;7.37;;;2.60;;
75866;SDS011;64513;56.258;43.980;2023-04-25T14:47:37;5.37;;;2.22;;
75866;SDS011;64513;56.258;43.980;2023-04-25T14:50:02;7.25;;;2.62;;
75866;SDS011;64513;56.258;43.980;2023-04-25T14:52:26;7.77;;;2.33;;
75866;SDS011;64513;56.258;43.980;2023-04-25T14:54:51;7.67;;;2.20;;
75866;SDS011;64513;56.258;43.980;2023-04-25T14:57:15;6.55;;;2.08;;
75866;SDS011;64513;56.258;43.980;2023-04-25T14:59:39;5.80;;;2.10;;
75866;SDS011;64513;56.258;43.980;2023-04-25T15:02:04;6.50;;;2.40;;
75866;SDS011;64513;56.258;43.980;2023-04-25T15:04:28;4.10;;;2.00;;
75866;SDS011;64513;56.258;43.980;2023-04-25T15:06:53;8.68;;;2.40;;
75866;SDS011;64513;56.258;43.980;2023-04-25T15:09:17;6.12;;;2.37;;